Time;durP1;ratioP1;P1;durP2;ratioP2;P2;SDS_P1;SDS_P2;PMS_P1;PMS_P2;Temp;Humidity;BMP_temperature;BMP_pressure;BME280_temperature;BME280_humidity;BME280_pressure;Samples;Min_cycle;Max_cycle;Signal;HPM_P1;HPM_P2
2023/02/16 00:00:51;;;;;;;34.92;25.70;;;;;;;7.42;96.53;102308.13;5104074;28;20050;-67
2023/02/16 00:03:22;;;;;;;36.72;25.40;;;;;;;7.41;97.30;102307.31;5098224;28;20086;-68
2023/02/16 00:05:50;;;;;;;34.10;24.63;;;;;;;7.41;96.69;102309.19;5116601;27;20039;-67
2023/02/16 00:08:18;;;;;;;37.35;26.73;;;;;;;7.41;96.64;102314.59;5114553;28;20052;-67
2023/02/16 00:13:43;;;;;;;38.38;27.17;;;;;;;7.38;96.40;102310.41;5106413;28;20047;-68
2023/02/16 00:16:30;;;;;;;36.60;25.27;;;;;;;7.35;95.61;102310.84;5085199;28;20088;-67
2023/02/16 00:18:58;;;;;;;41.88;29.15;;;;;;;7.33;95.93;102312.09;5075598;28;20548;-66
2023/02/16 00:21:26;;;;;;;37.35;26.77;;;;;;;7.32;95.34;102307.72;5112146;28;20047;-66
2023/02/16 00:23:54;;;;;;;38.63;27.13;;;;;;;7.31;95.64;102303.31;5096239;28;20071;-67
2023/02/16 00:26:24;;;;;;;38.10;26.70;;;;;;;7.31;96.45;102308.75;5113981;28;20040;-67
2023/02/16 00:28:57;;;;;;;37.08;27.50;;;;;;;7.29;95.69;102300.84;5108573;28;20044;-67
2023/02/16 00:31:27;;;;;;;41.60;29.40;;;;;;;7.28;95.44;102301.03;5076940;28;20075;-66
2023/02/16 00:33:55;;;;;;;41.55;28.60;;;;;;;7.27;95.39;102307.53;5095896;28;20048;-66
2023/02/16 00:36:23;;;;;;;43.63;29.50;;;;;;;7.24;95.18;102298.75;5082323;28;20048;-66
2023/02/16 00:38:51;;;;;;;41.25;28.80;;;;;;;7.23;95.70;102313.34;5093381;28;20047;-66
2023/02/16 00:44:15;;;;;;;42.55;29.92;;;;;;;7.21;95.98;102304.56;5089593;28;20258;-67
2023/02/16 00:46:44;;;;;;;42.50;28.80;;;;;;;7.20;95.54;102308.34;5092360;28;20048;-67
2023/02/16 00:49:17;;;;;;;40.92;29.02;;;;;;;7.19;96.26;102303.97;5105017;28;20071;-67
2023/02/16 00:51:45;;;;;;;41.75;29.25;;;;;;;7.18;96.04;102305.00;5103176;28;20554;-67
2023/02/16 00:54:13;;;;;;;40.88;27.45;;;;;;;7.17;95.47;102303.34;5089810;28;20081;-67
2023/02/16 00:56:41;;;;;;;38.42;27.08;;;;;;;7.15;96.14;102302.72;5076844;28;20476;-67
2023/02/16 00:59:15;;;;;;;40.67;28.20;;;;;;;7.15;96.19;102305.44;5077175;28;20491;-67
2023/02/16 01:01:43;;;;;;;34.30;25.27;;;;;;;7.16;95.80;102308.97;5093672;28;20108;-67
2023/02/16 01:04:19;;;;;;;42.33;28.20;;;;;;;7.15;95.85;102300.00;5101404;28;20095;-67
2023/02/16 01:12:21;;;;;;;32.42;23.00;;;;;;;7.16;97.44;102296.25;5061245;28;20036;-67
2023/02/16 01:14:52;;;;;;;31.85;21.58;;;;;;;7.16;96.80;102290.81;5094752;28;20044;-66
2023/02/16 01:17:22;;;;;;;32.25;23.65;;;;;;;7.18;97.20;102283.31;5092060;28;20094;-67
2023/02/16 01:19:53;;;;;;;47.28;27.35;;;;;;;7.15;96.57;102293.75;5075476;28;20134;-67
2023/02/16 01:22:20;;;;;;;38.20;28.35;;;;;;;7.11;96.28;102287.91;5092008;28;20058;-67
2023/02/16 01:24:48;;;;;;;37.55;27.42;;;;;;;7.09;95.69;102283.75;5058584;28;20097;-67
2023/02/16 01:27:16;;;;;;;34.88;26.17;;;;;;;7.07;96.00;102280.41;5075556;28;20465;-67
2023/02/16 01:29:45;;;;;;;36.28;26.65;;;;;;;7.07;95.87;102296.66;5100181;28;20121;-67
2023/02/16 01:32:12;;;;;;;37.95;27.08;;;;;;;7.06;95.22;102285.00;5103382;28;20048;-65
2023/02/16 01:34:41;;;;;;;37.63;26.95;;;;;;;7.06;95.96;102278.75;5080546;28;20062;-67
2023/02/16 01:37:15;;;;;;;34.38;24.95;;;;;;;7.06;95.36;102285.00;5106876;27;20047;-67
2023/02/16 01:39:43;;;;;;;32.42;22.80;;;;;;;7.05;96.00;102277.91;5114509;28;20044;-67
2023/02/16 01:42:29;;;;;;;31.90;21.85;;;;;;;7.07;97.41;102273.13;5097610;27;20127;-67
2023/02/16 01:45:08;;;;;;;30.77;22.83;;;;;;;7.06;97.21;102274.16;5099147;27;20423;-66
2023/02/16 01:47:57;;;;;;;34.08;23.52;;;;;;;7.05;97.38;102267.09;5112557;27;20109;-66
2023/02/16 01:50:30;;;;;;;36.50;25.90;;;;;;;7.03;96.47;102263.75;5114241;28;20531;-67
2023/02/16 01:53:15;;;;;;;34.53;24.33;;;;;;;7.02;95.87;102252.06;5102304;28;20055;-67
2023/02/16 01:55:44;;;;;;;36.08;25.00;;;;;;;7.00;95.99;102246.03;5097334;28;20056;-67
2023/02/16 01:58:25;;;;;;;37.28;25.77;;;;;;;7.01;95.78;102241.44;5108183;28;20051;-66
2023/02/16 02:00:55;;;;;;;34.67;23.88;;;;;;;6.99;96.18;102238.09;5129660;28;20034;-67
2023/02/16 02:06:38;;;;;;;32.03;22.73;;;;;;;6.95;96.62;102250.38;5082119;28;20036;-67
2023/02/16 02:09:06;;;;;;;;;;;;;;;6.96;97.39;102252.91;5110541;28;20518;-66
2023/02/16 02:11:40;;;;;;;35.53;26.25;;;;;;;6.94;96.34;102254.97;5098264;28;19920;-65
2023/02/16 02:14:14;;;;;;;37.22;26.13;;;;;;;6.91;96.13;102254.56;5114790;28;20043;-67
2023/02/16 02:16:55;;;;;;;32.80;24.40;;;;;;;6.89;95.79;102245.81;5114713;28;20043;-67
2023/02/16 02:19:23;;;;;;;33.70;23.17;;;;;;;6.90;96.12;102245.59;5091025;28;20062;-67
2023/02/16 02:25:26;;;;;;;31.95;22.33;;;;;;;6.91;97.33;102232.91;5110388;28;20066;-67
2023/02/16 02:28:00;;;;;;;32.47;22.80;;;;;;;6.91;97.79;102238.31;5117870;27;20043;-67
2023/02/16 02:30:47;;;;;;;36.65;26.42;;;;;;;6.89;98.16;102234.97;5114930;28;20094;-67
2023/02/16 02:33:15;;;;;;;37.80;26.10;;;;;;;6.86;96.99;102238.94;5113951;28;20075;-67
2023/02/16 02:35:46;;;;;;;38.88;25.73;;;;;;;6.86;97.44;102235.41;5113079;28;20043;-66
2023/02/16 02:38:23;;;;;;;40.58;25.77;;;;;;;6.85;97.34;102233.72;5097771;28;20124;-66
2023/02/16 02:41:15;;;;;;;38.10;28.00;;;;;;;6.83;97.08;102237.47;5079074;28;20055;-67
2023/02/16 02:43:57;;;;;;;33.05;24.00;;;;;;;6.85;97.30;102231.00;5104386;28;20043;-66
2023/02/16 02:46:27;;;;;;;37.15;25.65;;;;;;;6.85;96.86;102228.31;5095759;28;20100;-66
2023/02/16 02:48:55;;;;;;;37.47;27.02;;;;;;;6.82;95.85;102224.97;5112619;28;20043;-66
2023/02/16 02:51:28;;;;;;;36.50;27.10;;;;;;;6.81;96.12;102217.06;5114310;28;20075;-65
2023/02/16 03:02:59;;;;;;;41.45;29.13;;;;;;;6.76;95.25;102204.13;5113258;28;20058;-67
2023/02/16 03:05:28;;;;;;;40.50;30.05;;;;;;;6.73;95.08;102204.53;5113480;27;20053;-67
2023/02/16 03:08:05;;;;;;;40.03;29.33;;;;;;;6.71;95.58;102201.22;5103339;28;20123;-67
2023/02/16 03:13:25;;;;;;;40.63;29.80;;;;;;;6.72;95.51;102197.47;5106987;28;20134;-67
2023/02/16 03:15:55;;;;;;;40.35;28.95;;;;;;;6.72;94.54;102202.06;5094440;27;20054;-67
2023/02/16 03:29:37;;;;;;;40.35;29.38;;;;;;;6.64;95.49;102194.97;5113251;28;20094;-59
2023/02/16 03:32:05;;;;;;;40.88;30.35;;;;;;;6.63;94.82;102187.03;5132762;27;20065;-59
2023/02/16 03:34:34;;;;;;;42.80;30.33;;;;;;;6.59;95.03;102187.47;5122106;27;20406;-67
2023/02/16 03:37:02;;;;;;;40.58;30.40;;;;;;;6.55;95.38;102185.38;5101349;28;20372;-65
2023/02/16 03:39:31;;;;;;;41.90;30.17;;;;;;;6.53;94.87;102192.88;5092655;28;20044;-66
2023/02/16 03:41:58;;;;;;;40.88;29.63;;;;;;;6.50;94.89;102188.72;5072243;27;20055;-66
2023/02/16 03:44:26;;;;;;;41.65;29.95;;;;;;;6.47;94.92;102188.28;5104583;28;20043;-66
2023/02/16 03:46:54;;;;;;;36.95;26.58;;;;;;;6.47;95.28;102193.69;5111649;28;20070;-66
2023/02/16 03:49:22;;;;;;;38.97;27.45;;;;;;;6.49;95.83;102180.78;5114823;28;20075;-66
2023/02/16 03:51:50;;;;;;;39.10;28.48;;;;;;;6.47;95.20;102193.69;5077324;27;20055;-66
2023/02/16 03:54:18;;;;;;;35.85;24.65;;;;;;;6.48;95.54;102184.53;5102118;28;20491;-67
2023/02/16 03:56:45;;;;;;;41.10;29.33;;;;;;;6.46;95.67;102176.63;5098141;28;20052;-66
2023/02/16 03:59:14;;;;;;;43.47;30.50;;;;;;;6.46;96.04;102173.09;5076276;28;20514;-66
2023/02/16 04:01:42;;;;;;;44.47;30.48;;;;;;;6.45;95.83;102182.25;5098138;28;20047;-66
2023/02/16 04:04:09;;;;;;;40.00;28.70;;;;;;;6.44;95.68;102194.13;5099463;27;20048;-66
2023/02/16 04:06:37;;;;;;;35.53;23.45;;;;;;;6.47;96.54;102188.28;5120269;27;20051;-67
2023/02/16 04:09:05;;;;;;;37.63;26.50;;;;;;;6.48;95.99;102189.97;5120221;28;20134;-67
2023/02/16 04:14:19;;;;;;;35.85;27.10;;;;;;;6.53;96.47;102201.81;5098720;28;20073;-66
2023/02/16 04:16:46;;;;;;;31.58;22.88;;;;;;;6.55;97.53;102204.34;5113127;28;20048;-66
2023/02/16 04:19:14;;;;;;;32.45;23.38;;;;;;;6.54;96.90;102203.50;5100962;28;20127;-66
2023/02/16 04:21:42;;;;;;;32.50;22.52;;;;;;;6.56;98.06;102195.16;5103219;28;20040;-67
2023/02/16 04:24:10;;;;;;;34.63;24.55;;;;;;;6.58;99.47;102196.63;5112186;28;20047;-67
2023/02/16 04:26:37;;;;;;;36.83;23.77;;;;;;;6.58;99.01;102195.78;5116639;28;20048;-66
2023/02/16 04:29:05;;;;;;;35.75;25.48;;;;;;;6.56;98.04;102192.44;5112757;28;20495;-66
2023/02/16 04:31:33;;;;;;;37.35;24.52;;;;;;;6.55;97.70;102196.22;5098944;28;20051;-66
2023/02/16 04:34:00;;;;;;;35.83;25.85;;;;;;;6.51;96.91;102195.78;5090255;28;20131;-66
2023/02/16 04:36:28;;;;;;;34.15;24.48;;;;;;;6.50;96.70;102201.41;5097304;28;20040;-67
2023/02/16 04:38:56;;;;;;;47.55;28.83;;;;;;;6.49;95.88;102207.84;5095051;28;20071;-66
2023/02/16 04:41:25;;;;;;;37.38;27.67;;;;;;;6.47;96.50;102199.09;5115064;28;20048;-66
2023/02/16 04:43:53;;;;;;;41.58;29.25;;;;;;;6.46;96.41;102195.56;5137800;28;20107;-66
2023/02/16 04:46:20;;;;;;;38.55;27.95;;;;;;;6.44;96.04;102200.34;5110829;28;20055;-67
2023/02/16 04:48:48;;;;;;;40.40;27.33;;;;;;;6.43;96.17;102197.88;5080241;28;20040;-66
2023/02/16 04:51:16;;;;;;;39.20;27.50;;;;;;;6.43;96.22;102206.81;5059628;28;20056;-66
2023/02/16 04:53:44;;;;;;;35.28;26.02;;;;;;;6.44;96.92;102216.59;5093894;28;20058;-66
2023/02/16 04:56:12;;;;;;;37.55;26.13;;;;;;;6.45;96.93;102201.22;5098123;28;20090;-67
2023/02/16 04:58:40;;;;;;;37.08;26.48;;;;;;;6.46;97.36;102186.63;5103055;28;20082;-67
2023/02/16 05:01:08;;;;;;;43.22;31.70;;;;;;;6.43;95.90;102193.28;5099945;28;20054;-66
2023/02/16 05:03:36;;;;;;;36.85;27.48;;;;;;;6.43;97.06;102189.75;5110844;28;20063;-65
2023/02/16 05:06:04;;;;;;;34.30;24.77;;;;;;;6.44;97.45;102184.09;5108252;28;20058;-66
2023/02/16 05:08:31;;;;;;;36.88;26.25;;;;;;;6.42;96.96;102191.59;5108476;27;20050;-65
2023/02/16 05:16:32;;;;;;;42.90;32.28;;;;;;;6.42;96.88;102190.78;5114849;27;20048;-68
2023/02/16 05:18:59;;;;;;;46.72;33.38;;;;;;;6.39;97.04;102211.81;5118151;27;20073;-66
2023/02/16 05:21:30;;;;;;;46.08;32.47;;;;;;;6.36;96.68;102187.84;5098119;27;20539;-66
2023/02/16 05:24:00;;;;;;;35.95;25.40;;;;;;;6.35;97.90;102183.50;5114885;28;20379;-66
2023/02/16 05:26:28;;;;;;;48.92;32.50;;;;;;;6.36;97.16;102185.16;5095712;28;20044;-67
2023/02/16 05:28:56;;;;;;;43.17;31.13;;;;;;;6.33;97.38;102188.28;5097161;27;20108;-66
2023/02/16 05:31:24;;;;;;;42.20;31.20;;;;;;;6.32;97.14;102186.59;5103130;27;20044;-67
2023/02/16 05:33:52;;;;;;;44.22;32.42;;;;;;;6.33;97.35;102190.16;5094131;28;20142;-65
2023/02/16 05:36:21;;;;;;;37.60;28.17;;;;;;;6.32;98.04;102185.75;5066422;28;20048;-66
2023/02/16 05:38:49;;;;;;;41.05;30.23;;;;;;;6.32;97.82;102192.00;5096400;27;20040;-67
2023/02/16 05:41:22;;;;;;;42.47;31.38;;;;;;;6.32;97.92;102194.72;5110082;28;20070;-66
2023/02/16 05:43:52;;;;;;;41.25;29.92;;;;;;;6.34;97.53;102189.94;5116277;27;20473;-67
2023/02/16 05:46:24;;;;;;;40.20;27.83;;;;;;;6.35;98.27;102188.91;5114233;28;20043;-66
2023/02/16 05:48:52;;;;;;;44.88;30.15;;;;;;;6.37;98.12;102194.09;5110457;27;20074;-66
2023/02/16 05:51:21;;;;;;;38.58;28.30;;;;;;;6.38;98.03;102183.06;5114087;27;20079;-65
2023/02/16 05:53:48;;;;;;;42.55;31.33;;;;;;;6.38;97.69;102180.38;5112834;27;20040;-65
2023/02/16 05:56:17;;;;;;;40.08;27.33;;;;;;;6.39;98.55;102182.03;5096576;28;20415;-67
2023/02/16 05:58:45;;;;;;;35.83;27.08;;;;;;;6.40;98.18;102178.28;5114246;27;20118;-65
2023/02/16 06:01:13;;;;;;;40.17;30.23;;;;;;;6.41;97.76;102179.13;5113999;28;20505;-66
2023/02/16 06:03:41;;;;;;;47.15;32.15;;;;;;;6.39;97.88;102175.78;5113727;27;20118;-66
2023/02/16 06:06:09;;;;;;;41.70;30.42;;;;;;;6.38;98.37;102161.41;5111085;27;20097;-66
2023/02/16 06:08:37;;;;;;;44.95;30.90;;;;;;;6.38;98.63;102152.47;5116685;27;20164;-66
2023/02/16 06:11:34;;;;;;;40.08;29.83;;;;;;;6.38;98.23;102153.28;5079797;28;20062;-66
2023/02/16 06:13:58;;;;;;;43.90;30.13;;;;;;;6.35;98.25;102161.84;5095536;28;20111;-67
2023/02/16 06:16:26;;;;;;;35.20;26.13;;;;;;;6.38;98.46;102160.59;5094068;28;20131;-67
2023/02/16 06:18:54;;;;;;;36.55;26.15;;;;;;;6.37;99.01;102173.28;5116798;28;20059;-66
2023/02/16 06:21:23;;;;;;;32.53;23.63;;;;;;;6.38;99.48;102177.66;5116901;28;20051;-66
2023/02/16 06:23:51;;;;;;;32.90;23.70;;;;;;;6.38;99.26;102180.38;5090028;28;20036;-66
2023/02/16 06:26:19;;;;;;;35.83;25.38;;;;;;;6.40;100.00;102177.47;5106140;27;20415;-66
2023/02/16 06:28:48;;;;;;;30.70;22.33;;;;;;;6.42;100.00;102169.13;5113712;27;20137;-65
2023/02/16 06:31:16;;;;;;;43.65;30.88;;;;;;;6.40;99.26;102158.50;5097522;28;20043;-65
2023/02/16 06:33:44;;;;;;;37.25;25.83;;;;;;;6.39;99.97;102171.19;5115163;28;20126;-65
2023/02/16 06:36:12;;;;;;;32.80;23.67;;;;;;;6.42;100.00;102174.53;5120006;28;20231;-66
2023/02/16 06:38:39;;;;;;;39.35;29.75;;;;;;;6.39;100.00;102165.78;5095352;28;20040;-66
2023/02/16 06:41:07;;;;;;;33.70;24.38;;;;;;;6.38;100.00;102174.94;5100602;28;20043;-66
2023/02/16 06:43:35;;;;;;;31.02;23.63;;;;;;;6.39;100.00;102182.03;5119086;28;20043;-65
2023/02/16 06:46:03;;;;;;;48.25;33.92;;;;;;;6.33;100.00;102199.09;5122256;28;20082;-64
2023/02/16 06:48:31;;;;;;;43.45;32.78;;;;;;;6.26;100.00;102198.25;5112392;28;20046;-66
2023/02/16 06:51:05;;;;;;;42.08;31.72;;;;;;;6.20;100.00;102199.06;4611402;28;10002684;-67
2023/02/16 06:53:33;;;;;;;42.28;31.30;;;;;;;6.27;100.00;102204.50;5110106;28;20047;-65
2023/02/16 06:56:01;;;;;;;45.70;33.55;;;;;;;6.27;100.00;102204.50;5113304;28;20047;-65
2023/02/16 06:58:31;;;;;;;41.33;31.17;;;;;;;6.26;100.00;102195.56;5106493;27;20408;-67
2023/02/16 07:00:59;;;;;;;38.65;28.10;;;;;;;6.31;100.00;102189.53;5086056;28;20052;-66
2023/02/16 07:03:27;;;;;;;32.58;22.90;;;;;;;6.36;100.00;102198.69;5090132;27;20036;-67
2023/02/16 07:05:55;;;;;;;32.55;23.02;;;;;;;6.40;100.00;102199.94;5098124;27;20127;-67
2023/02/16 07:08:23;;;;;;;35.10;24.38;;;;;;;6.44;100.00;102194.94;5104964;28;20059;-67
2023/02/16 07:10:53;;;;;;;34.38;24.35;;;;;;;6.46;100.00;102197.44;5109321;28;20601;-67
2023/02/16 07:13:21;;;;;;;35.35;24.13;;;;;;;6.46;100.00;102197.44;5102271;27;20059;-61
2023/02/16 07:15:48;;;;;;;32.47;22.60;;;;;;;6.48;100.00;102206.19;5095475;28;20058;-62
2023/02/16 07:18:16;;;;;;;31.38;21.27;;;;;;;6.52;100.00;102208.28;5129259;27;20051;-65
2023/02/16 07:20:44;;;;;;;33.78;23.15;;;;;;;6.53;100.00;102203.72;5101778;28;20048;-66
2023/02/16 07:23:11;;;;;;;31.92;23.08;;;;;;;6.53;100.00;102209.13;5114802;28;20059;-64
2023/02/16 07:25:39;;;;;;;29.45;21.88;;;;;;;6.53;100.00;102209.94;5113944;28;20115;-61
2023/02/16 07:28:06;;;;;;;30.92;21.05;;;;;;;6.58;100.00;102206.63;5124452;28;20079;-65
2023/02/16 07:30:35;;;;;;;32.97;23.92;;;;;;;6.58;100.00;102201.22;5114426;28;20028;-67
2023/02/16 07:33:05;;;;;;;35.78;26.15;;;;;;;6.56;100.00;102201.41;5114947;27;20051;-66
2023/02/16 07:35:34;;;;;;;32.67;23.50;;;;;;;6.58;100.00;102196.63;5112929;27;20096;-66
2023/02/16 07:38:02;;;;;;;34.38;24.98;;;;;;;6.59;100.00;102198.31;5093804;28;20051;-66
2023/02/16 07:40:30;;;;;;;30.23;20.92;;;;;;;6.60;100.00;102196.41;5107611;28;20078;-66
2023/02/16 07:43:02;;;;;;;30.88;23.02;;;;;;;6.63;100.00;102193.28;5101208;27;20056;-66
2023/02/16 07:45:31;;;;;;;32.70;22.42;;;;;;;6.67;100.00;102193.72;5103853;28;20055;-65
2023/02/16 07:48:00;;;;;;;28.98;20.90;;;;;;;6.68;100.00;102189.97;5097850;28;20079;-65
2023/02/16 07:50:28;;;;;;;32.47;21.73;;;;;;;6.69;100.00;102202.47;5074818;28;20040;-66
2023/02/16 07:52:55;;;;;;;35.30;23.70;;;;;;;6.68;100.00;102204.31;5101296;27;20044;-66
2023/02/16 07:55:24;;;;;;;40.40;28.20;;;;;;;6.66;100.00;102211.81;5095314;28;20088;-65
2023/02/16 07:57:55;;;;;;;37.40;25.95;;;;;;;6.67;100.00;102216.22;5104890;28;20059;-66
2023/02/16 08:00:23;;;;;;;34.20;23.90;;;;;;;6.65;100.00;102218.28;5093438;28;20134;-65
2023/02/16 08:02:51;;;;;;;35.80;25.30;;;;;;;6.74;100.00;102227.88;5105539;28;20050;-66
2023/02/16 08:05:19;;;;;;;38.47;25.48;;;;;;;6.73;100.00;102220.78;5112198;28;20499;-65
2023/02/16 08:07:46;;;;;;;27.67;18.85;;;;;;;6.74;100.00;102214.34;5092103;28;20066;-65
2023/02/16 08:10:15;;;;;;;25.88;20.20;;;;;;;6.83;100.00;102214.94;5093921;28;20114;-66
2023/02/16 08:12:43;;;;;;;26.70;18.10;;;;;;;6.95;100.00;102212.44;5093552;28;20058;-65
2023/02/16 08:15:12;;;;;;;25.10;18.38;;;;;;;6.98;100.00;102217.47;5076012;28;20048;-64
2023/02/16 08:17:42;;;;;;;31.48;21.77;;;;;;;6.95;100.00;102213.31;5077088;28;20078;-65
2023/02/16 08:20:10;;;;;;;33.47;22.85;;;;;;;6.95;100.00;102224.16;5093788;28;20051;-66
2023/02/16 08:22:38;;;;;;;40.20;28.52;;;;;;;6.86;100.00;102221.84;5093550;28;20055;-67
2023/02/16 08:25:06;;;;;;;36.90;26.10;;;;;;;6.83;100.00;102226.66;5076853;28;20055;-65
2023/02/16 08:27:34;;;;;;;37.55;28.15;;;;;;;6.80;100.00;102237.03;5092716;28;20036;-66
2023/02/16 08:30:02;;;;;;;37.25;27.35;;;;;;;6.78;100.00;102239.97;5093562;28;20047;-66
2023/02/16 08:32:30;;;;;;;35.95;27.05;;;;;;;6.79;100.00;102236.22;5094014;28;20055;-65
2023/02/16 08:34:58;;;;;;;29.30;22.15;;;;;;;6.85;100.00;102236.44;5109385;28;20051;-66
2023/02/16 08:37:25;;;;;;;35.88;25.95;;;;;;;6.83;100.00;102234.78;5111599;28;20051;-65
2023/02/16 08:39:55;;;;;;;40.20;27.10;;;;;;;6.85;100.00;102241.84;5112434;28;20479;-64
2023/02/16 08:42:22;;;;;;;34.60;26.35;;;;;;;6.84;100.00;102238.31;5116858;28;20118;-65
2023/02/16 08:44:50;;;;;;;30.58;23.95;;;;;;;6.87;100.00;102237.06;5118033;28;20052;-65
2023/02/16 08:47:20;;;;;;;34.00;25.40;;;;;;;6.92;100.00;102238.09;5116308;28;20047;-63
2023/02/16 08:49:48;;;;;;;29.65;21.23;;;;;;;6.97;100.00;102246.41;5117976;28;20054;-65
2023/02/16 08:52:16;;;;;;;32.70;23.15;;;;;;;7.05;100.00;102250.81;5109996;27;20051;-65
2023/02/16 08:54:44;;;;;;;26.25;20.25;;;;;;;7.09;100.00;102245.81;5116474;28;20058;-64
2023/02/16 08:57:12;;;;;;;36.08;25.42;;;;;;;7.07;100.00;102246.03;5115730;28;20058;-65
2023/02/16 08:59:39;;;;;;;30.35;22.60;;;;;;;7.03;100.00;102239.34;5106795;28;20035;-65
2023/02/16 09:02:08;;;;;;;35.78;25.38;;;;;;;7.06;100.00;102246.22;5115580;28;20501;-66
2023/02/16 09:04:36;;;;;;;38.22;27.55;;;;;;;7.02;100.00;102252.06;5097391;27;20476;-64
2023/02/16 09:07:04;;;;;;;35.65;25.10;;;;;;;7.03;100.00;102256.44;5096401;28;20513;-65
2023/02/16 09:09:32;;;;;;;35.20;25.33;;;;;;;7.03;100.00;102255.63;5094199;28;20045;-65
2023/02/16 09:11:59;;;;;;;31.40;23.20;;;;;;;7.05;100.00;102258.94;5112437;27;20082;-66
2023/02/16 09:14:27;;;;;;;31.85;20.95;;;;;;;7.07;100.00;102264.16;5073752;27;20051;-65
2023/02/16 09:16:55;;;;;;;37.67;27.15;;;;;;;7.05;100.00;102264.38;5103033;28;20047;-67
2023/02/16 09:19:23;;;;;;;35.28;25.58;;;;;;;7.07;100.00;102267.72;5114395;28;20077;-68
2023/02/16 09:21:55;;;;;;;33.92;24.17;;;;;;;7.11;100.00;102268.94;5113882;27;20399;-67
2023/02/16 09:24:22;;;;;;;36.65;28.45;;;;;;;7.06;100.00;102271.44;5098624;27;20070;-66
2023/02/16 09:26:50;;;;;;;41.83;30.23;;;;;;;7.03;100.00;102266.44;5099633;28;20051;-66
2023/02/16 09:29:20;;;;;;;43.08;30.75;;;;;;;7.01;100.00;102265.81;5117808;28;20067;-65
2023/02/16 09:31:48;;;;;;;41.75;30.45;;;;;;;7.00;100.00;102256.03;5115888;28;20492;-67
2023/02/16 09:34:20;;;;;;;36.00;26.75;;;;;;;7.01;100.00;102261.22;5117102;28;20448;-66
2023/02/16 09:36:48;;;;;;;35.67;27.30;;;;;;;7.03;100.00;102264.56;5114983;28;20043;-65
2023/02/16 09:39:17;;;;;;;32.15;23.35;;;;;;;7.07;100.00;102261.44;5116790;28;20436;-64
2023/02/16 09:42:10;;;;;;;32.15;24.85;;;;;;;7.10;100.00;102256.44;5116867;28;20055;-65
2023/02/16 09:44:50;;;;;;;34.70;23.58;;;;;;;7.15;100.00;102264.78;5116629;28;20104;-65
2023/02/16 09:47:23;;;;;;;35.25;25.95;;;;;;;7.17;100.00;102259.97;5088333;28;20484;-68
2023/02/16 09:49:55;;;;;;;31.25;22.13;;;;;;;7.21;100.00;102254.97;5095704;28;20044;-68
2023/02/16 09:52:29;;;;;;;30.67;23.98;;;;;;;7.20;100.00;102253.31;5100249;28;20056;-67
2023/02/16 09:55:04;;;;;;;30.55;23.20;;;;;;;7.21;100.00;102255.78;5115396;28;20050;-65
2023/02/16 09:58:03;;;;;;;33.88;20.60;;;;;;;7.29;100.00;102251.19;5116012;28;20056;-64
2023/02/16 10:00:34;;;;;;;30.27;21.70;;;;;;;7.40;100.00;102242.41;5105161;28;20135;-67
2023/02/16 10:03:12;;;;;;;33.88;24.05;;;;;;;7.46;100.00;102247.00;5108762;28;20051;-65
2023/02/16 10:05:47;;;;;;;27.63;19.45;;;;;;;7.44;100.00;102240.97;5102811;28;20056;-65
2023/02/16 10:08:37;;;;;;;31.40;22.02;;;;;;;7.42;100.00;102229.50;5109198;28;20102;-66
2023/02/16 10:14:22;;;;;;;32.63;21.85;;;;;;;7.39;100.00;102246.19;5122593;28;20056;-65
2023/02/16 10:17:11;;;;;;;36.45;23.98;;;;;;;7.46;100.00;102242.41;5104398;28;20065;-66
2023/02/16 10:20:00;;;;;;;35.30;24.23;;;;;;;7.42;100.00;102252.00;5118861;28;20095;-65
2023/02/16 10:23:19;;;;;;;31.90;24.50;;;;;;;7.43;100.00;102252.84;5114380;28;20075;-66
2023/02/16 10:25:57;;;;;;;31.90;19.73;;;;;;;7.44;100.00;102254.53;5070672;28;20068;-66
2023/02/16 10:28:46;;;;;;;34.35;24.10;;;;;;;7.44;100.00;102255.34;5094445;28;20052;-66
2023/02/16 10:31:43;;;;;;;31.80;23.52;;;;;;;7.39;100.00;102247.03;5092323;28;20055;-67
2023/02/16 10:34:39;;;;;;;34.28;22.88;;;;;;;7.39;100.00;102252.44;5093478;28;20111;-67
2023/02/16 10:37:32;;;;;;;30.88;22.63;;;;;;;7.37;100.00;102248.28;5110660;28;20051;-66
2023/02/16 10:40:24;;;;;;;32.72;24.73;;;;;;;7.38;100.00;102244.50;5096970;28;20088;-66
2023/02/16 10:43:04;;;;;;;35.78;28.02;;;;;;;7.38;100.00;102247.22;5114336;28;20044;-66
2023/02/16 10:45:37;;;;;;;33.38;25.25;;;;;;;7.37;100.00;102253.69;5112749;28;20035;-66
2023/02/16 10:48:07;;;;;;;32.72;25.50;;;;;;;7.35;100.00;102250.34;5108369;28;20050;-65
2023/02/16 10:50:39;;;;;;;39.95;27.95;;;;;;;7.36;100.00;102246.59;5093698;28;20048;-66
2023/02/16 10:53:27;;;;;;;41.50;30.23;;;;;;;7.28;100.00;102253.06;5099863;28;20109;-66
2023/02/16 10:55:57;;;;;;;40.93;30.83;;;;;;;7.24;100.00;102251.84;5056550;28;1110949;-65
2023/02/16 10:58:36;;;;;;;38.85;29.30;;;;;;;7.23;100.00;102253.69;5077397;28;20075;-65
2023/02/16 11:01:12;;;;;;;39.50;29.60;;;;;;;7.23;100.00;102251.00;5077836;28;20040;-66
2023/02/16 11:03:43;;;;;;;;;;;;;;;7.22;100.00;102241.22;5085323;28;20048;-66
2023/02/16 11:06:24;;;;;;;40.70;30.23;;;;;;;7.20;100.00;102253.31;5102266;27;19965;-64
2023/02/16 11:08:58;;;;;;;38.50;29.90;;;;;;;7.19;100.00;102255.19;5094137;28;20054;-61
2023/02/16 11:11:29;;;;;;;40.83;29.58;;;;;;;7.18;100.00;102255.38;5108604;28;20044;-62
2023/02/16 11:14:04;;;;;;;40.72;29.77;;;;;;;7.17;100.00;102264.56;5090077;28;20040;-65
2023/02/16 11:16:35;;;;;;;28.02;19.92;;;;;;;7.18;100.00;102256.22;5083499;28;20036;-66
2023/02/16 11:19:21;;;;;;;25.13;19.33;;;;;;;7.23;100.00;102255.59;5119330;28;20173;-65
2023/02/16 11:21:54;;;;;;;29.13;21.83;;;;;;;7.27;100.00;102250.59;5113721;28;20052;-59
2023/02/16 11:24:26;;;;;;;27.15;18.27;;;;;;;7.31;100.00;102255.38;5111209;27;20054;-65
2023/02/16 11:27:02;;;;;;;25.95;15.70;;;;;;;7.47;100.00;102243.25;5136860;27;20106;-66
2023/02/16 11:29:31;;;;;;;36.05;21.25;;;;;;;7.47;100.00;102235.09;5079369;28;20048;-67
2023/02/16 11:32:05;;;;;;;34.60;20.67;;;;;;;7.53;100.00;102226.13;5093389;28;20384;-67
2023/02/16 11:34:36;;;;;;;36.28;22.58;;;;;;;7.56;100.00;102230.28;5089252;28;20057;-66
2023/02/16 11:37:05;;;;;;;42.03;19.80;;;;;;;7.67;100.00;102227.75;4398009;28;10000525;-66
2023/02/16 11:39:36;;;;;;;40.53;23.80;;;;;;;7.68;100.00;102225.88;5111057;28;20039;-66
2023/02/16 11:42:17;;;;;;;41.00;21.25;;;;;;;7.76;100.00;102225.63;5091353;28;20130;-65
2023/02/16 11:44:54;;;;;;;38.10;24.92;;;;;;;7.77;100.00;102226.44;5109573;27;20112;-65
2023/02/16 11:47:27;;;;;;;36.25;24.17;;;;;;;7.67;100.00;102221.47;5090748;28;20051;-65
2023/02/16 11:50:18;;;;;;;45.15;22.08;;;;;;;7.76;100.00;102208.50;5089557;28;20068;-65
2023/02/16 11:52:48;;;;;;;39.67;24.15;;;;;;;7.80;100.00;102204.34;5073019;28;20163;-67
2023/02/16 11:55:32;;;;;;;33.22;22.98;;;;;;;7.72;100.00;102213.56;5093614;28;20453;-67
2023/02/16 11:58:20;;;;;;;44.42;24.05;;;;;;;7.80;100.00;102201.63;5114197;28;20637;-65
2023/02/16 12:01:02;;;;;;;45.00;24.45;;;;;;;7.98;100.00;102188.16;5115660;28;20093;-67
2023/02/16 12:03:47;;;;;;;46.63;23.05;;;;;;;7.96;100.00;102197.56;5112350;27;20052;-65
2023/02/16 12:06:26;;;;;;;48.05;24.52;;;;;;;8.09;100.00;102187.47;5093964;28;20079;-66
2023/02/16 12:09:02;;;;;;;47.80;25.08;;;;;;;8.18;100.00;102184.47;5092206;28;20058;-66
2023/02/16 12:11:33;;;;;;;48.60;25.45;;;;;;;8.14;100.00;102178.69;5089293;28;20083;-66
2023/02/16 12:14:14;;;;;;;45.67;26.60;;;;;;;8.25;100.00;102182.56;5104303;28;20132;-65
2023/02/16 12:16:59;;;;;;;47.72;24.83;;;;;;;8.16;100.00;102192.88;5109245;28;20461;-66
2023/02/16 12:19:30;;;;;;;47.10;25.92;;;;;;;8.32;100.00;102181.50;5109578;28;20044;-67
2023/02/16 12:22:13;;;;;;;45.80;24.42;;;;;;;8.27;100.00;102177.75;5109504;28;20051;-66
2023/02/16 12:25:12;;;;;;;58.95;27.13;;;;;;;8.52;100.00;102169.69;5088058;28;20391;-64
2023/02/16 12:28:03;;;;;;;46.45;25.35;;;;;;;8.46;100.00;102165.94;5089144;28;20067;-67